Observation data for Muleshoe on 05/24/2020      Previous  Date  Next       Current Mesonet Observations  Soil Data  Daily Summary Page  Observations in Plain Language
KMUS 240500Z 14012G17KT 19/11 A2984 RMK A01 T01900113  RH  063%=      5-min Rain = 0
KMUS 240505Z 15014G19KT 20/11 A2984 RMK A01 T01950113  RH  061%=      5-min Rain = 0
KMUS 240510Z 15013G18KT 20/11 A2984 RMK A01 T01950113  RH  061%=      5-min Rain = 0
KMUS 240515Z 15012G18KT 19/11 A2984 RMK A01 T01940113  RH  061%=      5-min Rain = 0
KMUS 240520Z 16015G20KT 19/11 A2984 RMK A01 T01940113  RH  062%=      5-min Rain = 0
KMUS 240525Z 15014G19KT 19/11 A2984 RMK A01 T01930113  RH  062%=      5-min Rain = 0
KMUS 240530Z 15013KT 19/11 A2984 RMK A01 T01930113  RH  062%=      5-min Rain = 0
KMUS 240535Z 16012KT 19/11 A2984 RMK A01 T01910113  RH  063%=      5-min Rain = 0
KMUS 240540Z 16014KT 19/11 A2983 RMK A01 T01890113  RH  063%=      5-min Rain = 0
KMUS 240545Z 16016G21KT 19/11 A2983 RMK A01 T01890112  RH  063%=      5-min Rain = 0
KMUS 240550Z 16016G21KT 19/11 A2983 RMK A01 T01900112  RH  063%=      5-min Rain = 0
KMUS 240555Z 16015KT 19/11 A2984 RMK A01 T01870112  RH  064%=      5-min Rain = 0
KMUS 240600Z 16016KT 19/11 A2984 RMK A01 T01870111  RH  064%=      5-min Rain = 0
KMUS 240605Z 16017G23KT 19/11 A2983 RMK A01 T01870111  RH  064%=      5-min Rain = 0
KMUS 240610Z 16016G21KT 19/11 A2983 RMK A01 T01870111  RH  064%=      5-min Rain = 0
KMUS 240615Z 16016G22KT 19/11 A2983 RMK A01 T01860111  RH  064%=      5-min Rain = 0
KMUS 240620Z 16016G22KT 19/11 A2983 RMK A01 T01850110  RH  064%=      5-min Rain = 0
KMUS 240625Z 16016KT 19/11 A2984 RMK A01 T01850111  RH  064%=      5-min Rain = 0
KMUS 240630Z 16016KT 18/11 A2984 RMK A01 T01840111  RH  065%=      5-min Rain = 0
KMUS 240635Z 16016G21KT 18/11 A2984 RMK A01 T01830111  RH  065%=      5-min Rain = 0
KMUS 240640Z 16015G20KT 18/11 A2984 RMK A01 T01840112  RH  065%=      5-min Rain = 0
KMUS 240645Z 17016G21KT 18/11 A2983 RMK A01 T01840113  RH  065%=      5-min Rain = 0
KMUS 240650Z 17016G21KT 19/11 A2983 RMK A01 T01860113  RH  065%=      5-min Rain = 0
KMUS 240655Z 17017G22KT 19/11 A2983 RMK A01 T01870114  RH  065%=      5-min Rain = 0
KMUS 240700Z 17017G22KT 19/11 A2983 RMK A01 T01880114  RH  065%=      5-min Rain = 0
KMUS 240705Z 17017G24KT 19/11 A2984 RMK A01 T01880114  RH  064%=      5-min Rain = 0
KMUS 240710Z 17018G23KT 19/11 A2984 RMK A01 T01880114  RH  064%=      5-min Rain = 0
KMUS 240715Z 16018KT 19/11 A2984 RMK A01 T01880114  RH  064%=      5-min Rain = 0
KMUS 240720Z 16017G25KT 19/11 A2984 RMK A01 T01870113  RH  064%=      5-min Rain = 0
KMUS 240725Z 17017KT 19/11 A2984 RMK A01 T01850112  RH  065%=      5-min Rain = 0
KMUS 240730Z 16017G22KT 18/11 A2984 RMK A01 T01840111  RH  065%=      5-min Rain = 0
KMUS 240735Z 17015G20KT 18/11 A2984 RMK A01 T01820111  RH  065%=      5-min Rain = 0
KMUS 240740Z 17017G24KT 18/11 A2984 RMK A01 T01820111  RH  066%=      5-min Rain = 0
KMUS 240745Z 17017KT 18/11 A2984 RMK A01 T01820112  RH  066%=      5-min Rain = 0
KMUS 240750Z 17016G22KT 18/11 A2984 RMK A01 T01820112  RH  066%=      5-min Rain = 0
KMUS 240755Z 17016G22KT 18/11 A2984 RMK A01 T01810112  RH  066%=      5-min Rain = 0
KMUS 240800Z 16017G22KT 18/11 A2984 RMK A01 T01790111  RH  067%=      5-min Rain = 0
KMUS 240805Z 16016G22KT 18/11 A2984 RMK A01 T01770111  RH  068%=      5-min Rain = 0
KMUS 240810Z 16016G22KT 18/11 A2984 RMK A01 T01750114  RH  070%=      5-min Rain = 0
KMUS 240815Z 16018KT 17/12 A2984 RMK A01 T01740117  RH  072%=      5-min Rain = 0
KMUS 240820Z 17019G24KT 18/12 A2984 RMK A01 T01750118  RH  072%=      5-min Rain = 0
KMUS 240825Z 17017G23KT 18/12 A2984 RMK A01 T01750119  RH  072%=      5-min Rain = 0
KMUS 240830Z 17018G25KT 18/12 A2984 RMK A01 T01750120  RH  073%=      5-min Rain = 0
KMUS 240835Z 17017G22KT 17/12 A2985 RMK A01 T01740120  RH  073%=      5-min Rain = 0
KMUS 240840Z 17017G22KT 17/12 A2985 RMK A01 T01740121  RH  074%=      5-min Rain = 0
KMUS 240845Z 17018KT 17/12 A2985 RMK A01 T01730120  RH  074%=      5-min Rain = 0
KMUS 240850Z 17018G23KT 17/12 A2985 RMK A01 T01730120  RH  074%=      5-min Rain = 0
KMUS 240855Z 17017G22KT 17/12 A2985 RMK A01 T01720120  RH  074%=      5-min Rain = 0
KMUS 240900Z 17017G23KT 17/12 A2985 RMK A01 T01700120  RH  075%=      5-min Rain = 0
KMUS 240905Z 17016G22KT 17/12 A2985 RMK A01 T01700119  RH  075%=      5-min Rain = 0
KMUS 240910Z 17015KT 17/12 A2985 RMK A01 T01680119  RH  075%=      5-min Rain = 0
KMUS 240915Z 17016G23KT 17/12 A2985 RMK A01 T01680119  RH  076%=      5-min Rain = 0
KMUS 240920Z 17016KT 17/12 A2985 RMK A01 T01670118  RH  076%=      5-min Rain = 0
KMUS 240925Z 17017G22KT 17/12 A2985 RMK A01 T01670118  RH  076%=      5-min Rain = 0
KMUS 240930Z 17016KT 17/12 A2985 RMK A01 T01660118  RH  076%=      5-min Rain = 0
KMUS 240935Z 17015G22KT 17/12 A2985 RMK A01 T01650117  RH  076%=      5-min Rain = 0
KMUS 240940Z 18014G19KT 16/12 A2985 RMK A01 T01640117  RH  076%=      5-min Rain = 0
KMUS 240945Z 17014G20KT 16/12 A2985 RMK A01 T01630117  RH  077%=      5-min Rain = 0
KMUS 240950Z 17014G19KT 16/12 A2985 RMK A01 T01620116  RH  077%=      5-min Rain = 0
KMUS 240955Z 18014KT 16/12 A2985 RMK A01 T01610116  RH  077%=      5-min Rain = 0
KMUS 241000Z 18013KT 16/12 A2985 RMK A01 T01600116  RH  078%=      5-min Rain = 0
KMUS 241005Z 18013G18KT 16/12 A2985 RMK A01 T01580115  RH  078%=      5-min Rain = 0
KMUS 241010Z 18013KT 16/12 A2984 RMK A01 T01570115  RH  079%=      5-min Rain = 0
KMUS 241015Z 18014G19KT 16/12 A2985 RMK A01 T01570115  RH  079%=      5-min Rain = 0
KMUS 241020Z 18014G19KT 16/11 A2985 RMK A01 T01580114  RH  078%=      5-min Rain = 0
KMUS 241025Z 18013G19KT 16/11 A2985 RMK A01 T01580114  RH  078%=      5-min Rain = 0
KMUS 241030Z 18013KT 16/11 A2985 RMK A01 T01570114  RH  078%=      5-min Rain = 0
KMUS 241035Z 18013KT 16/11 A2985 RMK A01 T01560114  RH  079%=      5-min Rain = 0
KMUS 241040Z 18012G17KT 16/11 A2985 RMK A01 T01550113  RH  079%=      5-min Rain = 0
KMUS 241045Z 18012KT 15/11 A2985 RMK A01 T01540113  RH  080%=      5-min Rain = 0
KMUS 241050Z 17012KT 15/11 A2985 RMK A01 T01530113  RH  080%=      5-min Rain = 0
KMUS 241055Z 17012KT 15/11 A2985 RMK A01 T01520113  RH  080%=      5-min Rain = 0
KMUS 241100Z 17012G17KT 15/11 A2985 RMK A01 T01510113  RH  080%=      5-min Rain = 0
KMUS 241105Z 17012KT 15/11 A2985 RMK A01 T01520113  RH  080%=      5-min Rain = 0
KMUS 241110Z 17011KT 15/11 A2985 RMK A01 T01500112  RH  081%=      5-min Rain = 0
KMUS 241115Z 17011KT 15/11 A2986 RMK A01 T01480111  RH  081%=      5-min Rain = 0
KMUS 241120Z 17010KT 15/11 A2986 RMK A01 T01470111  RH  082%=      5-min Rain = 0
KMUS 241125Z 17011KT 15/11 A2986 RMK A01 T01470111  RH  082%=      5-min Rain = 0
KMUS 241130Z 17010KT 15/11 A2986 RMK A01 T01480111  RH  081%=      5-min Rain = 0
KMUS 241135Z 17011KT 15/11 A2986 RMK A01 T01480111  RH  081%=      5-min Rain = 0
KMUS 241140Z 17010G15KT 15/11 A2986 RMK A01 T01490111  RH  081%=      5-min Rain = 0
KMUS 241145Z 17010KT 15/11 A2987 RMK A01 T01490111  RH  081%=      5-min Rain = 0
KMUS 241150Z 17009G15KT 15/11 A2987 RMK A01 T01490111  RH  081%=      5-min Rain = 0
KMUS 241155Z 17008KT 15/11 A2987 RMK A01 T01480111  RH  081%=      5-min Rain = 0
KMUS 241200Z 17008KT 15/11 A2987 RMK A01 T01480112  RH  082%=      5-min Rain = 0
KMUS 241205Z 17008KT 15/11 A2987 RMK A01 T01490112  RH  081%=      5-min Rain = 0
KMUS 241210Z 17008KT 15/11 A2987 RMK A01 T01500113  RH  081%=      5-min Rain = 0
KMUS 241215Z 18007G12KT 15/11 A2987 RMK A01 T01510113  RH  081%=      5-min Rain = 0
KMUS 241220Z 18007KT 15/11 A2988 RMK A01 T01520113  RH  080%=      5-min Rain = 0
KMUS 241225Z 18007KT 15/11 A2988 RMK A01 T01530114  RH  080%=      5-min Rain = 0
KMUS 241230Z 18008KT 16/11 A2988 RMK A01 T01550114  RH  080%=      5-min Rain = 0
KMUS 241235Z 18009KT 16/12 A2988 RMK A01 T01560115  RH  079%=      5-min Rain = 0
KMUS 241240Z 18008KT 16/12 A2988 RMK A01 T01580115  RH  079%=      5-min Rain = 0
KMUS 241245Z 18008KT 16/12 A2988 RMK A01 T01590116  RH  078%=      5-min Rain = 0
KMUS 241250Z 18009KT 16/12 A2988 RMK A01 T01580115  RH  079%=      5-min Rain = 0
KMUS 241255Z 18010KT 16/12 A2988 RMK A01 T01570116  RH  079%=      5-min Rain = 0
KMUS 241300Z 18009KT 16/12 A2988 RMK A01 T01570116  RH  079%=      5-min Rain = 0
KMUS 241305Z 18009KT 16/12 A2988 RMK A01 T01590117  RH  079%=      5-min Rain = 0
KMUS 241310Z 19010KT 16/12 A2987 RMK A01 T01620118  RH  078%=      5-min Rain = 0
KMUS 241315Z 19010KT 17/12 A2987 RMK A01 T01650119  RH  077%=      5-min Rain = 0
KMUS 241320Z 19010G15KT 17/12 A2987 RMK A01 T01690121  RH  076%=      5-min Rain = 0
KMUS 241325Z 18012KT 17/12 A2987 RMK A01 T01720122  RH  075%=      5-min Rain = 0
KMUS 241330Z 19012G17KT 18/12 A2987 RMK A01 T01760124  RH  074%=      5-min Rain = 0
KMUS 241335Z 19014G21KT 18/12 A2986 RMK A01 T01770124  RH  074%=      5-min Rain = 0
KMUS 241340Z 19012G17KT 18/13 A2987 RMK A01 T01780125  RH  074%=      5-min Rain = 0
KMUS 241345Z 19012KT 18/13 A2987 RMK A01 T01810127  RH  073%=      5-min Rain = 0
KMUS 241350Z 19013G19KT 18/13 A2987 RMK A01 T01830128  RH  073%=      5-min Rain = 0
KMUS 241355Z 19015G21KT 18/13 A2987 RMK A01 T01840127  RH  072%=      5-min Rain = 0
KMUS 241400Z 20013G19KT 19/13 A2987 RMK A01 T01850128  RH  073%=      5-min Rain = 0
KMUS 241405Z 20013G18KT 19/13 A2987 RMK A01 T01910130  RH  071%=      5-min Rain = 0
KMUS 241410Z 21016KT 20/13 A2986 RMK A01 T01960131  RH  069%=      5-min Rain = 0
KMUS 241415Z 21017KT 20/13 A2987 RMK A01 T01990132  RH  068%=      5-min Rain = 0
KMUS 241420Z 21017G22KT 20/13 A2987 RMK A01 T02010133  RH  068%=      5-min Rain = 0
KMUS 241425Z 21015G20KT 21/13 A2987 RMK A01 T02060134  RH  066%=      5-min Rain = 0
KMUS 241430Z 21016KT 21/13 A2986 RMK A01 T02070133  RH  065%=      5-min Rain = 0
KMUS 241435Z 21016KT 21/13 A2986 RMK A01 T02090132  RH  064%=      5-min Rain = 0
KMUS 241440Z 21015KT 21/13 A2986 RMK A01 T02100132  RH  064%=      5-min Rain = 0
KMUS 241445Z 21013KT 22/13 A2986 RMK A01 T02160134  RH  062%=      5-min Rain = 0
KMUS 241450Z 20015KT 22/13 A2986 RMK A01 T02200133  RH  060%=      5-min Rain = 0
KMUS 241455Z 21015KT 23/13 A2986 RMK A01 T02250133  RH  058%=      5-min Rain = 0
KMUS 241500Z 21013KT 23/13 A2986 RMK A01 T02270134  RH  058%=      5-min Rain = 0
KMUS 241505Z 21013G20KT 23/13 A2986 RMK A01 T02330133  RH  055%=      5-min Rain = 0
KMUS 241510Z 22014KT 24/13 A2986 RMK A01 T02360131  RH  054%=      5-min Rain = 0
KMUS 241515Z 21014G19KT 24/13 A2986 RMK A01 T02390127  RH  051%=      5-min Rain = 0
KMUS 241520Z 22013G18KT 24/12 A2986 RMK A01 T02420123  RH  049%=      5-min Rain = 0
KMUS 241525Z 22015G20KT 24/11 A2985 RMK A01 T02440112  RH  045%=      5-min Rain = 0
KMUS 241530Z 23014KT 25/11 A2985 RMK A01 T02480112  RH  044%=      5-min Rain = 0
KMUS 241535Z 23013KT 25/11 A2985 RMK A01 T02520109  RH  042%=      5-min Rain = 0
KMUS 241540Z 24012G19KT 25/11 A2985 RMK A01 T02530105  RH  041%=      5-min Rain = 0
KMUS 241545Z 24013KT 26/11 A2985 RMK A01 T02550105  RH  040%=      5-min Rain = 0
KMUS 241550Z 25012KT 26/10 A2985 RMK A01 T02560099  RH  038%=      5-min Rain = 0
KMUS 241555Z 24012G17KT 26/10 A2985 RMK A01 T02600095  RH  036%=      5-min Rain = 0
KMUS 241600Z 26013KT 26/09 A2985 RMK A01 T02610086  RH  034%=      5-min Rain = 0
KMUS 241605Z 25011KT 26/08 A2985 RMK A01 T02620082  RH  033%=      5-min Rain = 0
KMUS 241610Z 25010KT 26/09 A2985 RMK A01 T02640091  RH  035%=      5-min Rain = 0
KMUS 241615Z 25012KT 27/08 A2985 RMK A01 T02670081  RH  032%=      5-min Rain = 0
KMUS 241620Z 27011G16KT 27/07 A2985 RMK A01 T02670074  RH  030%=      5-min Rain = 0
KMUS 241625Z 26011KT 27/07 A2985 RMK A01 T02690074  RH  030%=      5-min Rain = 0
KMUS 241630Z 26011KT 27/06 A2985 RMK A01 T02690063  RH  027%=      5-min Rain = 0
KMUS 241635Z 26009KT 27/07 A2985 RMK A01 T02700068  RH  028%=      5-min Rain = 0
KMUS 241640Z 25007KT 27/07 A2985 RMK A01 T02710066  RH  028%=      5-min Rain = 0
KMUS 241645Z 25010KT 27/06 A2985 RMK A01 T02730055  RH  025%=      5-min Rain = 0
KMUS 241650Z 28009KT 27/04 A2985 RMK A01 T02740043  RH  023%=      5-min Rain = 0
KMUS 241655Z 26008G13KT 28/04 A2985 RMK A01 T02770037  RH  022%=      5-min Rain = 0
KMUS 241700Z 24006G12KT 28/04 A2985 RMK A01 T02780043  RH  023%=      5-min Rain = 0
KMUS 241705Z 25008KT 28/05 A2985 RMK A01 T02830048  RH  023%=      5-min Rain = 0
KMUS 241710Z 24007KT 28/04 A2985 RMK A01 T02840044  RH  022%=      5-min Rain = 0
KMUS 241715Z 26005G10KT 29/04 A2985 RMK A01 T02880041  RH  021%=      5-min Rain = 0
KMUS 241720Z 30006KT 29/03 A2985 RMK A01 T02880031  RH  020%=      5-min Rain = 0
KMUS 241725Z 26005G10KT 29/03 A2985 RMK A01 T02850034  RH  020%=      5-min Rain = 0
KMUS 241730Z 23006KT 29/01 A2985 RMK A01 T02890010  RH  017%=      5-min Rain = 0
KMUS 241735Z 26005KT 29/02 A2985 RMK A01 T02900019  RH  018%=      5-min Rain = 0
KMUS 241740Z 25008G13KT 30/02 A2985 RMK A01 T02960017  RH  017%=      5-min Rain = 0
KMUS 241745Z 29006KT 29/02 A2985 RMK A01 T02940020  RH  018%=      5-min Rain = 0
KMUS 241750Z 25009KT 29/01 A2985 RMK A01 T02930007  RH  016%=      5-min Rain = 0
KMUS 241755Z 25006G11KT 29/M00 A2984 RMK A01 T02941003  RH  015%=      5-min Rain = 0
KMUS 241800Z 27009KT 30/M02 A2984 RMK A01 T02951018  RH  013%=      5-min Rain = 0
KMUS 241805Z 25003G9KT 30/M00 A2984 RMK A01 T02961002  RH  015%=      5-min Rain = 0
KMUS 241810Z 25007G13KT 30/M01 A2984 RMK A01 T02991014  RH  013%=      5-min Rain = 0
KMUS 241815Z 28007KT 30/M01 A2983 RMK A01 T03031012  RH  013%=      5-min Rain = 0
KMUS 241820Z 26008G14KT 30/M02 A2983 RMK A01 T03031017  RH  013%=      5-min Rain = 0
KMUS 241825Z 21008G14KT 30/M02 A2983 RMK A01 T03041017  RH  013%=      5-min Rain = 0
KMUS 241830Z 19002G9KT 30/M02 A2983 RMK A01 T03021019  RH  013%=      5-min Rain = 0
KMUS 241835Z 21008G13KT 31/M03 A2983 RMK A01 T03051027  RH  012%=      5-min Rain = 0
KMUS 241840Z 20006G12KT 31/M02 A2983 RMK A01 T03081017  RH  012%=      5-min Rain = 0
KMUS 241845Z 20007G12KT 31/M02 A2982 RMK A01 T03091015  RH  012%=      5-min Rain = 0
KMUS 241850Z 26003G11KT 31/M02 A2982 RMK A01 T03101019  RH  012%=      5-min Rain = 0
KMUS 241855Z 23005G16KT 31/M02 A2982 RMK A01 T03101015  RH  012%=      5-min Rain = 0
KMUS 241900Z 24006KT 31/M02 A2982 RMK A01 T03111015  RH  012%=      5-min Rain = 0
KMUS 241905Z 20006G11KT 31/M02 A2982 RMK A01 T03091017  RH  012%=      5-min Rain = 0
KMUS 241910Z 20005G10KT 31/M02 A2981 RMK A01 T03081020  RH  012%=      5-min Rain = 0
KMUS 241915Z 23007G18KT 31/M02 A2981 RMK A01 T03121019  RH  012%=      5-min Rain = 0
KMUS 241920Z 25013G23KT 32/M02 A2981 RMK A01 T03181017  RH  012%=      5-min Rain = 0
KMUS 241925Z 23011G18KT 32/M02 A298 RMK A01 T03181019  RH  011%=      5-min Rain = 0
KMUS 241930Z 23008G14KT 31/M03 A2981 RMK A01 T03071025  RH  012%=      5-min Rain = 0
KMUS 241935Z 26006G12KT 31/M03 A298 RMK A01 T03051025  RH  012%=      5-min Rain = 0
KMUS 241940Z 26002KT 31/M03 A298 RMK A01 T03071025  RH  012%=      5-min Rain = 0
KMUS 241945Z 23008G17KT 31/M03 A298 RMK A01 T03071025  RH  012%=      5-min Rain = 0
KMUS 241950Z 25006G13KT 31/M03 A298 RMK A01 T03051025  RH  012%=      5-min Rain = 0
KMUS 241955Z 28011KT 31/M02 A298 RMK A01 T03061022  RH  012%=      5-min Rain = 0
KMUS 242000Z 26013KT 31/M02 A2979 RMK A01 T03061022  RH  012%=      5-min Rain = 0
KMUS 242005Z 27010KT 31/M02 A2979 RMK A01 T03101020  RH  012%=      5-min Rain = 0
KMUS 242010Z 28010KT 31/M02 A2979 RMK A01 T03101023  RH  012%=      5-min Rain = 0
KMUS 242015Z 28011G16KT 31/M02 A2979 RMK A01 T03111019  RH  012%=      5-min Rain = 0
KMUS 242020Z 29009G15KT 31/M02 A2979 RMK A01 T03111021  RH  012%=      5-min Rain = 0
KMUS 242025Z 27008G15KT 31/M02 A2979 RMK A01 T03081024  RH  012%=      5-min Rain = 0
KMUS 242030Z 28007G18KT 31/M02 A2979 RMK A01 T03101022  RH  012%=      5-min Rain = 0
KMUS 242035Z 26014KT 32/M02 A2978 RMK A01 T03181020  RH  011%=      5-min Rain = 0
KMUS 242040Z 27012KT 32/M02 A2978 RMK A01 T03151023  RH  011%=      5-min Rain = 0
KMUS 242045Z 25008KT 31/M03 A2978 RMK A01 T03131025  RH  011%=      5-min Rain = 0
KMUS 242050Z 26009G14KT 32/M02 A2978 RMK A01 T03161021  RH  011%=      5-min Rain = 0
KMUS 242055Z 26009KT 32/M03 A2977 RMK A01 T03171026  RH  011%=      5-min Rain = 0
KMUS 242100Z 27008G13KT 32/M02 A2977 RMK A01 T03201023  RH  011%=      5-min Rain = 0
KMUS 242105Z 26009KT 32/M02 A2977 RMK A01 T03231021  RH  011%=      5-min Rain = 0
KMUS 242110Z 29009G18KT 32/M02 A2976 RMK A01 T03211023  RH  011%=      5-min Rain = 0
KMUS 242115Z 27011G17KT 32/M02 A2976 RMK A01 T03241023  RH  011%=      5-min Rain = 0
KMUS 242120Z 24009G17KT 32/M02 A2976 RMK A01 T03221023  RH  011%=      5-min Rain = 0
KMUS 242125Z 29008G13KT 32/M02 A2976 RMK A01 T03211021  RH  011%=      5-min Rain = 0
KMUS 242130Z 25010G15KT 32/M02 A2975 RMK A01 T03241024  RH  011%=      5-min Rain = 0
KMUS 242135Z 22005KT 32/M02 A2975 RMK A01 T03221023  RH  011%=      5-min Rain = 0
KMUS 242140Z 26006G12KT 32/M02 A2975 RMK A01 T03241022  RH  011%=      5-min Rain = 0
KMUS 242145Z 26011KT 32/M03 A2975 RMK A01 T03241026  RH  010%=      5-min Rain = 0
KMUS 242150Z 27008KT 32/M03 A2974 RMK A01 T03231026  RH  011%=      5-min Rain = 0
KMUS 242155Z 27006G14KT 32/M03 A2973 RMK A01 T03221026  RH  011%=      5-min Rain = 0
KMUS 242200Z 27008G18KT 32/M03 A2973 RMK A01 T03221027  RH  011%=      5-min Rain = 0
KMUS 242205Z 28008KT 32/M03 A2973 RMK A01 T03241026  RH  010%=      5-min Rain = 0
KMUS 242210Z 23005KT 32/M03 A2973 RMK A01 T03191029  RH  011%=      5-min Rain = 0
KMUS 242215Z 29008KT 31/M03 A2973 RMK A01 T03121029  RH  011%=      5-min Rain = 0
KMUS 242220Z 26010G15KT 32/M03 A2972 RMK A01 T03171034  RH  010%=      5-min Rain = 0
KMUS 242225Z 24009KT 32/M04 A2972 RMK A01 T03201036  RH  010%=      5-min Rain = 0
KMUS 242230Z 25007G12KT 32/M03 A2972 RMK A01 T03201031  RH  010%=      5-min Rain = 0
KMUS 242235Z 24011G17KT 32/M04 A2971 RMK A01 T03181040  RH  010%=      5-min Rain = 0
KMUS 242240Z 26012KT 32/M04 A2971 RMK A01 T03151038  RH  010%=      5-min Rain = 0
KMUS 242245Z 26010KT 31/M04 A297 RMK A01 T03141040  RH  010%=      5-min Rain = 0
KMUS 242250Z 24013G19KT 32/M04 A297 RMK A01 T03221038  RH  010%=      5-min Rain = 0
KMUS 242255Z 23014G19KT 33/M04 A297 RMK A01 T03271039  RH  009%=      5-min Rain = 0
KMUS 242300Z 25012G19KT 33/M04 A297 RMK A01 T03291040  RH  009%=      5-min Rain = 0
KMUS 242305Z 25014KT 32/M04 A2969 RMK A01 T03221041  RH  009%=      5-min Rain = 0
KMUS 242310Z 25015KT 31/M05 A2969 RMK A01 T03141046  RH  009%=      5-min Rain = 0
KMUS 242315Z 23015G20KT 32/M04 A2969 RMK A01 T03161044  RH  010%=      5-min Rain = 0
KMUS 242320Z 22014G21KT 32/M04 A2969 RMK A01 T03221043  RH  009%=      5-min Rain = 0
KMUS 242325Z 24012G18KT 32/M04 A2969 RMK A01 T03231039  RH  010%=      5-min Rain = 0
KMUS 242330Z 21013G18KT 32/M04 A2969 RMK A01 T03241041  RH  009%=      5-min Rain = 0
KMUS 242335Z 22011G17KT 33/M04 A2969 RMK A01 T03251039  RH  009%=      5-min Rain = 0
KMUS 242340Z 25014KT 33/M04 A2969 RMK A01 T03251037  RH  010%=      5-min Rain = 0
KMUS 242345Z 25013KT 32/M04 A2969 RMK A01 T03201040  RH  010%=      5-min Rain = 0
KMUS 242350Z 26011G16KT 31/M04 A2969 RMK A01 T03141043  RH  010%=      5-min Rain = 0
KMUS 242355Z 26010G15KT 31/M04 A2969 RMK A01 T03131044  RH  010%=      5-min Rain = 0
KMUS 250000Z 26007KT 31/M04 A2969 RMK A01 T03101041  RH  010%=      5-min Rain = 0
KMUS 250005Z 26008G15KT 31/M04 A2969 RMK A01 T03111042  RH  010%=      5-min Rain = 0
KMUS 250010Z 24007KT 31/M04 A2969 RMK A01 T03091044  RH  010%=      5-min Rain = 0
KMUS 250015Z 23006G11KT 31/M05 A2969 RMK A01 T03131045  RH  010%=      5-min Rain = 0
KMUS 250020Z 27006KT 32/M04 A2969 RMK A01 T03151041  RH  010%=      5-min Rain = 0
KMUS 250025Z 25006KT 32/M04 A2969 RMK A01 T03181039  RH  010%=      5-min Rain = 0
KMUS 250030Z 24006KT 32/M05 A2968 RMK A01 T03171047  RH  009%=      5-min Rain = 0
KMUS 250035Z 17002KT 32/M05 A2969 RMK A01 T03161047  RH  009%=      5-min Rain = 0
KMUS 250040Z 29003KT 32/M04 A2969 RMK A01 T03221042  RH  009%=      5-min Rain = 0
KMUS 250045Z 26004G10KT 32/M02 A2969 RMK A01 T03211020  RH  011%=      5-min Rain = 0
KMUS 250050Z 27009G15KT 32/M06 A2969 RMK A01 T03151055  RH  009%=      5-min Rain = 0
KMUS 250055Z 27012KT 31/M06 A2969 RMK A01 T03111060  RH  009%=      5-min Rain = 0
KMUS 250100Z 27012KT 31/M06 A2968 RMK A01 T03091058  RH  009%=      5-min Rain = 0
KMUS 250105Z 28012KT 31/M06 A2968 RMK A01 T03061059  RH  009%=      5-min Rain = 0
KMUS 250110Z 27009KT 30/M06 A2968 RMK A01 T03041055  RH  009%=      5-min Rain = 0
KMUS 250115Z 28011KT 30/M05 A2967 RMK A01 T03011054  RH  010%=      5-min Rain = 0
KMUS 250120Z 29012G18KT 30/M06 A2967 RMK A01 T02981055  RH  010%=      5-min Rain = 0
KMUS 250125Z 27011KT 30/M06 A2966 RMK A01 T02951058  RH  010%=      5-min Rain = 0
KMUS 250130Z 27008KT 29/M06 A2966 RMK A01 T02921058  RH  010%=      5-min Rain = 0
KMUS 250135Z 26004KT 29/M06 A2967 RMK A01 T02881055  RH  010%=      5-min Rain = 0
KMUS 250140Z 15007KT 28/01 A2968 RMK A01 T02750011  RH  019%=      5-min Rain = 0
KMUS 250145Z 14007KT 26/04 A2969 RMK A01 T02550036  RH  025%=      5-min Rain = 0
KMUS 250150Z 12007KT 25/04 A2969 RMK A01 T02450040  RH  027%=      5-min Rain = 0
KMUS 250155Z 09008G13KT 24/04 A2969 RMK A01 T02420037  RH  027%=      5-min Rain = 0
KMUS 250200Z 13009KT 24/03 A2969 RMK A01 T02430030  RH  025%=      5-min Rain = 0
KMUS 250205Z 14011KT 24/03 A297 RMK A01 T02420027  RH  025%=      5-min Rain = 0
KMUS 250210Z 14010KT 24/03 A297 RMK A01 T02410025  RH  025%=      5-min Rain = 0
KMUS 250215Z 14008KT 24/03 A2971 RMK A01 T02390025  RH  025%=      5-min Rain = 0
KMUS 250220Z 14010KT 24/02 A2971 RMK A01 T02360024  RH  025%=      5-min Rain = 0
KMUS 250225Z 16010KT 23/03 A2971 RMK A01 T02330027  RH  026%=      5-min Rain = 0
KMUS 250230Z 16011KT 23/03 A2971 RMK A01 T02300029  RH  027%=      5-min Rain = 0
KMUS 250235Z 17010KT 23/03 A2971 RMK A01 T02280029  RH  028%=      5-min Rain = 0
KMUS 250240Z 17010KT 23/03 A2971 RMK A01 T02260030  RH  028%=      5-min Rain = 0
KMUS 250245Z 17010KT 22/03 A2972 RMK A01 T02240032  RH  029%=      5-min Rain = 0
KMUS 250250Z 16012KT 22/03 A2973 RMK A01 T02210033  RH  030%=      5-min Rain = 0
KMUS 250255Z 16014KT 22/03 A2973 RMK A01 T02210033  RH  030%=      5-min Rain = 0
KMUS 250300Z 17013KT 22/04 A2973 RMK A01 T02190038  RH  031%=      5-min Rain = 0
KMUS 250305Z 16013KT 22/05 A2972 RMK A01 T02160049  RH  034%=      5-min Rain = 0
KMUS 250310Z 16012G18KT 21/06 A2972 RMK A01 T02140055  RH  036%=      5-min Rain = 0
KMUS 250315Z 16013KT 21/06 A2972 RMK A01 T02120058  RH  037%=      5-min Rain = 0
KMUS 250320Z 16014G19KT 21/07 A2972 RMK A01 T02090066  RH  040%=      5-min Rain = 0
KMUS 250325Z 16013G18KT 21/07 A2971 RMK A01 T02070071  RH  042%=      5-min Rain = 0
KMUS 250330Z 16013KT 21/07 A2971 RMK A01 T02050071  RH  043%=      5-min Rain = 0
KMUS 250335Z 16011KT 20/07 A2971 RMK A01 T02040071  RH  043%=      5-min Rain = 0
KMUS 250340Z 15010KT 20/07 A2971 RMK A01 T02020071  RH  044%=      5-min Rain = 0
KMUS 250345Z 15009KT 20/07 A2971 RMK A01 T02010071  RH  044%=      5-min Rain = 0
KMUS 250350Z 15011KT 20/07 A2971 RMK A01 T02000069  RH  044%=      5-min Rain = 0
KMUS 250355Z 15012KT 20/07 A2972 RMK A01 T02000068  RH  043%=      5-min Rain = 0
KMUS 250400Z 15011KT 20/07 A2972 RMK A01 T01990068  RH  043%=      5-min Rain = 0
KMUS 250405Z 14013KT 20/07 A2972 RMK A01 T01990067  RH  043%=      5-min Rain = 0
KMUS 250410Z 15011KT 20/07 A2972 RMK A01 T01980068  RH  044%=      5-min Rain = 0
KMUS 250415Z 14010KT 20/07 A2972 RMK A01 T01960069  RH  045%=      5-min Rain = 0
KMUS 250420Z 14009KT 20/07 A2973 RMK A01 T01950069  RH  045%=      5-min Rain = 0
KMUS 250425Z 14010KT 19/07 A2973 RMK A01 T01940070  RH  046%=      5-min Rain = 0
KMUS 250430Z 14011KT 19/07 A2973 RMK A01 T01940070  RH  046%=      5-min Rain = 0
KMUS 250435Z 13013G19KT 19/07 A2974 RMK A01 T01940070  RH  045%=      5-min Rain = 0
KMUS 250440Z 13011KT 19/07 A2974 RMK A01 T01940072  RH  046%=      5-min Rain = 0
KMUS 250445Z 13012KT 19/07 A2974 RMK A01 T01920074  RH  047%=      5-min Rain = 0
KMUS 250450Z 13013KT 19/08 A2975 RMK A01 T01910075  RH  048%=      5-min Rain = 0
KMUS 250455Z 13013G18KT 19/08 A2975 RMK A01 T01900076  RH  049%=      5-min Rain = 0

Page generated in 0.0162 seconds.